sensor_id;sensor_type;location;lat;lon;timestamp;pressure;altitude;pressure_sealevel;temperature;humidity
38852;BME280;24605;50.092;9.182;2023-02-01T00:02:26;98302.31;;;3.21;100.00
38852;BME280;24605;50.092;9.182;2023-02-01T00:04:53;98334.38;;;3.32;100.00
38852;BME280;24605;50.092;9.182;2023-02-01T00:07:19;98324.75;;;3.34;100.00
38852;BME280;24605;50.092;9.182;2023-02-01T00:09:46;98329.09;;;3.33;100.00
38852;BME280;24605;50.092;9.182;2023-02-01T00:12:13;98329.94;;;3.34;100.00
38852;BME280;24605;50.092;9.182;2023-02-01T00:14:39;98322.16;;;3.34;100.00
38852;BME280;24605;50.092;9.182;2023-02-01T00:17:06;98336.38;;;3.28;100.00
38852;BME280;24605;50.092;9.182;2023-02-01T00:19:34;98324.38;;;3.27;100.00
38852;BME280;24605;50.092;9.182;2023-02-01T00:22:01;98330.88;;;3.33;100.00
38852;BME280;24605;50.092;9.182;2023-02-01T00:24:28;98332.00;;;3.28;100.00
38852;BME280;24605;50.092;9.182;2023-02-01T00:26:54;98320.25;;;3.24;100.00
38852;BME280;24605;50.092;9.182;2023-02-01T00:29:22;98325.56;;;3.34;100.00
38852;BME280;24605;50.092;9.182;2023-02-01T00:31:50;98330.16;;;3.31;100.00
38852;BME280;24605;50.092;9.182;2023-02-01T00:34:18;98334.38;;;3.32;100.00
38852;BME280;24605;50.092;9.182;2023-02-01T00:36:46;98326.63;;;3.32;100.00
38852;BME280;24605;50.092;9.182;2023-02-01T00:39:13;98306.22;;;3.27;100.00
38852;BME280;24605;50.092;9.182;2023-02-01T00:41:40;98314.47;;;3.32;100.00
38852;BME280;24605;50.092;9.182;2023-02-01T00:44:07;98278.41;;;3.18;100.00
38852;BME280;24605;50.092;9.182;2023-02-01T00:46:33;98320.03;;;3.39;100.00
38852;BME280;24605;50.092;9.182;2023-02-01T00:49:00;98314.97;;;3.37;100.00
38852;BME280;24605;50.092;9.182;2023-02-01T00:51:28;98296.00;;;3.25;100.00
38852;BME280;24605;50.092;9.182;2023-02-01T00:53:56;98310.25;;;3.42;100.00
38852;BME280;24605;50.092;9.182;2023-02-01T00:56:23;98303.44;;;3.41;100.00
38852;BME280;24605;50.092;9.182;2023-02-01T00:58:49;98314.38;;;3.34;100.00
38852;BME280;24605;50.092;9.182;2023-02-01T01:01:17;98304.59;;;3.37;100.00
38852;BME280;24605;50.092;9.182;2023-02-01T01:03:46;98308.69;;;3.28;100.00
38852;BME280;24605;50.092;9.182;2023-02-01T01:06:14;98320.00;;;3.27;100.00
38852;BME280;24605;50.092;9.182;2023-02-01T01:08:42;98316.25;;;3.32;100.00
38852;BME280;24605;50.092;9.182;2023-02-01T01:11:12;98316.03;;;3.35;100.00
38852;BME280;24605;50.092;9.182;2023-02-01T01:13:39;98285.81;;;3.11;100.00
38852;BME280;24605;50.092;9.182;2023-02-01T01:16:07;98321.91;;;3.37;100.00
38852;BME280;24605;50.092;9.182;2023-02-01T01:18:34;98284.66;;;3.15;100.00
38852;BME280;24605;50.092;9.182;2023-02-01T01:21:03;98297.63;;;3.26;100.00
38852;BME280;24605;50.092;9.182;2023-02-01T01:23:30;98322.84;;;3.36;100.00
38852;BME280;24605;50.092;9.182;2023-02-01T01:25:56;98296.34;;;3.32;100.00
38852;BME280;24605;50.092;9.182;2023-02-01T01:28:24;98301.19;;;3.37;100.00
38852;BME280;24605;50.092;9.182;2023-02-01T01:30:51;98292.81;;;3.33;100.00
38852;BME280;24605;50.092;9.182;2023-02-01T01:33:17;98316.25;;;3.32;100.00
38852;BME280;24605;50.092;9.182;2023-02-01T01:35:44;98315.31;;;3.33;100.00
38852;BME280;24605;50.092;9.182;2023-02-01T01:38:10;98316.03;;;3.35;100.00
38852;BME280;24605;50.092;9.182;2023-02-01T01:40:38;98314.59;;;3.31;100.00
38852;BME280;24605;50.092;9.182;2023-02-01T01:43:12;98293.75;;;3.21;100.00
38852;BME280;24605;50.092;9.182;2023-02-01T01:45:40;98301.69;;;3.42;100.00
38852;BME280;24605;50.092;9.182;2023-02-01T01:48:08;98293.91;;;3.42;100.00
38852;BME280;24605;50.092;9.182;2023-02-01T01:50:39;98288.47;;;3.45;100.00
38852;BME280;24605;50.092;9.182;2023-02-01T01:53:08;98236.38;;;3.14;100.00
38852;BME280;24605;50.092;9.182;2023-02-01T01:55:40;98275.88;;;3.52;100.00
38852;BME280;24605;50.092;9.182;2023-02-01T01:58:12;98277.16;;;3.46;100.00
38852;BME280;24605;50.092;9.182;2023-02-01T02:00:42;98280.34;;;3.50;100.00
38852;BME280;24605;50.092;9.182;2023-02-01T02:03:13;98274.09;;;3.41;100.00
38852;BME280;24605;50.092;9.182;2023-02-01T02:05:41;98264.47;;;3.43;100.00
38852;BME280;24605;50.092;9.182;2023-02-01T02:08:07;98271.88;;;3.48;100.00
38852;BME280;24605;50.092;9.182;2023-02-01T02:10:34;98262.22;;;3.38;100.00
38852;BME280;24605;50.092;9.182;2023-02-01T02:13:17;98258.44;;;3.42;100.00
38852;BME280;24605;50.092;9.182;2023-02-01T02:15:52;98255.50;;;3.47;100.00
38852;BME280;24605;50.092;9.182;2023-02-01T02:18:27;98245.13;;;3.47;100.00
38852;BME280;24605;50.092;9.182;2023-02-01T02:21:16;98233.00;;;3.48;100.00
38852;BME280;24605;50.092;9.182;2023-02-01T02:26:53;98212.81;;;3.28;100.00
38852;BME280;24605;50.092;9.182;2023-02-01T02:32:47;98210.16;;;3.30;100.00
38852;BME280;24605;50.092;9.182;2023-02-01T02:35:26;98212.25;;;3.36;100.00
38852;BME280;24605;50.092;9.182;2023-02-01T02:38:02;98227.34;;;3.42;100.00
38852;BME280;24605;50.092;9.182;2023-02-01T02:40:34;98230.63;;;3.44;100.00
38852;BME280;24605;50.092;9.182;2023-02-01T02:43:08;98237.47;;;3.45;100.00
38852;BME280;24605;50.092;9.182;2023-02-01T02:45:57;98238.28;;;3.46;100.00
38852;BME280;24605;50.092;9.182;2023-02-01T02:48:47;98246.75;;;3.37;100.00
38852;BME280;24605;50.092;9.182;2023-02-01T02:51:22;98255.13;;;3.40;100.00
38852;BME280;24605;50.092;9.182;2023-02-01T02:54:24;98269.16;;;3.38;100.00
38852;BME280;24605;50.092;9.182;2023-02-01T02:57:14;98262.81;;;3.42;100.00
38852;BME280;24605;50.092;9.182;2023-02-01T03:00:02;98265.41;;;3.42;100.00
38852;BME280;24605;50.092;9.182;2023-02-01T03:02:48;98262.09;;;3.40;100.00
38852;BME280;24605;50.092;9.182;2023-02-01T03:05:33;98255.97;;;3.41;100.00
38852;BME280;24605;50.092;9.182;2023-02-01T03:08:08;98237.81;;;3.29;100.00
38852;BME280;24605;50.092;9.182;2023-02-01T03:10:42;98252.44;;;3.42;100.00
38852;BME280;24605;50.092;9.182;2023-02-01T03:13:14;98213.88;;;3.14;100.00
38852;BME280;24605;50.092;9.182;2023-02-01T03:15:45;98251.84;;;3.38;100.00
38852;BME280;24605;50.092;9.182;2023-02-01T03:18:18;98228.97;;;3.32;100.00
38852;BME280;24605;50.092;9.182;2023-02-01T03:20:49;98235.59;;;3.36;100.00
38852;BME280;24605;50.092;9.182;2023-02-01T03:23:21;98233.13;;;3.35;100.00
38852;BME280;24605;50.092;9.182;2023-02-01T03:25:49;98233.34;;;3.32;100.00
38852;BME280;24605;50.092;9.182;2023-02-01T03:28:18;98232.16;;;3.36;100.00
38852;BME280;24605;50.092;9.182;2023-02-01T03:30:48;98224.03;;;3.40;100.00
38852;BME280;24605;50.092;9.182;2023-02-01T03:33:18;98182.19;;;3.11;100.00
38852;BME280;24605;50.092;9.182;2023-02-01T03:35:55;98218.84;;;3.29;100.00
38852;BME280;24605;50.092;9.182;2023-02-01T03:38:28;98241.22;;;3.41;100.00
38852;BME280;24605;50.092;9.182;2023-02-01T03:41:01;98237.56;;;3.44;100.00
38852;BME280;24605;50.092;9.182;2023-02-01T03:43:32;98219.44;;;3.33;100.00
38852;BME280;24605;50.092;9.182;2023-02-01T03:46:03;98234.03;;;3.45;100.00
38852;BME280;24605;50.092;9.182;2023-02-01T03:48:33;98224.75;;;3.42;100.00
38852;BME280;24605;50.092;9.182;2023-02-01T03:51:03;98202.47;;;3.28;100.00
38852;BME280;24605;50.092;9.182;2023-02-01T03:53:34;98231.56;;;3.43;100.00
38852;BME280;24605;50.092;9.182;2023-02-01T03:56:03;98229.22;;;3.40;100.00
38852;BME280;24605;50.092;9.182;2023-02-01T03:58:30;98206.25;;;3.24;100.00
38852;BME280;24605;50.092;9.182;2023-02-01T04:00:58;98230.50;;;3.46;100.00
38852;BME280;24605;50.092;9.182;2023-02-01T04:03:26;98221.59;;;3.50;100.00
38852;BME280;24605;50.092;9.182;2023-02-01T04:05:53;98224.53;;;3.45;100.00
38852;BME280;24605;50.092;9.182;2023-02-01T04:08:20;98209.91;;;3.44;100.00
38852;BME280;24605;50.092;9.182;2023-02-01T04:10:48;98190.47;;;3.39;100.00
38852;BME280;24605;50.092;9.182;2023-02-01T04:13:15;98149.44;;;3.10;100.00
38852;BME280;24605;50.092;9.182;2023-02-01T04:15:42;98201.06;;;3.47;100.00
38852;BME280;24605;50.092;9.182;2023-02-01T04:18:08;98201.78;;;3.49;100.00
38852;BME280;24605;50.092;9.182;2023-02-01T04:20:35;98207.19;;;3.46;100.00
38852;BME280;24605;50.092;9.182;2023-02-01T04:23:01;98209.91;;;3.44;100.00
38852;BME280;24605;50.092;9.182;2023-02-01T04:25:29;98212.28;;;3.48;100.00
38852;BME280;24605;50.092;9.182;2023-02-01T04:27:57;98191.16;;;3.29;100.00
38852;BME280;24605;50.092;9.182;2023-02-01T04:30:24;98174.56;;;3.21;100.00
38852;BME280;24605;50.092;9.182;2023-02-01T04:32:51;98203.06;;;3.43;100.00
38852;BME280;24605;50.092;9.182;2023-02-01T04:35:17;98188.56;;;3.29;100.00
38852;BME280;24605;50.092;9.182;2023-02-01T04:37:44;98204.25;;;3.39;100.00
38852;BME280;24605;50.092;9.182;2023-02-01T04:40:11;98212.50;;;3.44;100.00
38852;BME280;24605;50.092;9.182;2023-02-01T04:42:38;98194.34;;;3.33;100.00
38852;BME280;24605;50.092;9.182;2023-02-01T04:45:07;98206.72;;;3.41;100.00
38852;BME280;24605;50.092;9.182;2023-02-01T04:47:34;98221.94;;;3.45;100.00
38852;BME280;24605;50.092;9.182;2023-02-01T04:50:00;98212.84;;;3.40;100.00
38852;BME280;24605;50.092;9.182;2023-02-01T04:52:27;98212.97;;;3.38;100.00
38852;BME280;24605;50.092;9.182;2023-02-01T04:54:53;98205.53;;;3.45;100.00
38852;BME280;24605;50.092;9.182;2023-02-01T04:57:22;98195.53;;;3.40;100.00
38852;BME280;24605;50.092;9.182;2023-02-01T04:59:49;98213.69;;;3.52;100.00
38852;BME280;24605;50.092;9.182;2023-02-01T05:02:17;98195.06;;;3.35;100.00
38852;BME280;24605;50.092;9.182;2023-02-01T05:04:43;98211.31;;;3.49;100.00
38852;BME280;24605;50.092;9.182;2023-02-01T05:07:10;98214.50;;;3.52;100.00
38852;BME280;24605;50.092;9.182;2023-02-01T05:09:36;98216.41;;;3.50;100.00
38852;BME280;24605;50.092;9.182;2023-02-01T05:12:03;98157.72;;;3.15;100.00
38852;BME280;24605;50.092;9.182;2023-02-01T05:14:48;98200.25;;;3.47;100.00
38852;BME280;24605;50.092;9.182;2023-02-01T05:17:14;98185.03;;;3.31;100.00
38852;BME280;24605;50.092;9.182;2023-02-01T05:19:42;98196.59;;;3.49;100.00
38852;BME280;24605;50.092;9.182;2023-02-01T05:22:09;98204.16;;;3.52;100.00
38852;BME280;24605;50.092;9.182;2023-02-01T05:24:35;98199.78;;;3.53;100.00
38852;BME280;24605;50.092;9.182;2023-02-01T05:27:02;98190.47;;;3.50;100.00
38852;BME280;24605;50.092;9.182;2023-02-01T05:29:28;98200.84;;;3.50;100.00
38852;BME280;24605;50.092;9.182;2023-02-01T05:31:55;98192.13;;;3.51;100.00
38852;BME280;24605;50.092;9.182;2023-02-01T05:34:21;98195.53;;;3.52;100.00
38852;BME280;24605;50.092;9.182;2023-02-01T05:36:49;98193.78;;;3.52;100.00
38852;BME280;24605;50.092;9.182;2023-02-01T05:39:16;98199.19;;;3.49;100.00
38852;BME280;24605;50.092;9.182;2023-02-01T05:41:42;98195.88;;;3.47;100.00
38852;BME280;24605;50.092;9.182;2023-02-01T05:44:10;98197.41;;;3.50;100.00
38852;BME280;24605;50.092;9.182;2023-02-01T05:46:37;98177.50;;;3.39;100.00
38852;BME280;24605;50.092;9.182;2023-02-01T05:49:04;98170.94;;;3.35;100.00
38852;BME280;24605;50.092;9.182;2023-02-01T05:51:31;98183.16;;;3.55;100.00
38852;BME280;24605;50.092;9.182;2023-02-01T05:54:00;98181.50;;;3.54;100.00
38852;BME280;24605;50.092;9.182;2023-02-01T05:56:27;98189.06;;;3.57;100.00
38852;BME280;24605;50.092;9.182;2023-02-01T05:58:53;98177.53;;;3.50;100.00
38852;BME280;24605;50.092;9.182;2023-02-01T06:01:20;98146.06;;;3.32;100.00
38852;BME280;24605;50.092;9.182;2023-02-01T06:03:47;98091.78;;;2.96;100.00
38852;BME280;24605;50.092;9.182;2023-02-01T06:06:14;98179.50;;;3.58;100.00
38852;BME280;24605;50.092;9.182;2023-02-01T06:08:41;98165.28;;;3.52;100.00
38852;BME280;24605;50.092;9.182;2023-02-01T06:11:09;98165.00;;;3.55;100.00
38852;BME280;24605;50.092;9.182;2023-02-01T06:13:35;98176.69;;;3.61;100.00
38852;BME280;24605;50.092;9.182;2023-02-01T06:16:04;98171.41;;;3.51;100.00
38852;BME280;24605;50.092;9.182;2023-02-01T06:18:32;98165.84;;;3.44;100.00
38852;BME280;24605;50.092;9.182;2023-02-01T06:20:59;98128.16;;;3.18;100.00
38852;BME280;24605;50.092;9.182;2023-02-01T06:23:27;98173.75;;;3.32;100.00
38852;BME280;24605;50.092;9.182;2023-02-01T06:25:58;98167.47;;;3.23;100.00
38852;BME280;24605;50.092;9.182;2023-02-01T06:28:27;98156.53;;;2.96;100.00
38852;BME280;24605;50.092;9.182;2023-02-01T06:30:54;98146.50;;;2.92;100.00
38852;BME280;24605;50.092;9.182;2023-02-01T06:33:23;98154.28;;;3.03;100.00
38852;BME280;24605;50.092;9.182;2023-02-01T06:35:56;98163.59;;;3.06;100.00
38852;BME280;24605;50.092;9.182;2023-02-01T06:38:23;98138.72;;;2.92;100.00
38852;BME280;24605;50.092;9.182;2023-02-01T06:40:52;98192.34;;;3.25;100.00
38852;BME280;24605;50.092;9.182;2023-02-01T06:43:19;98160.16;;;3.05;100.00
38852;BME280;24605;50.092;9.182;2023-02-01T06:45:58;98096.09;;;2.73;100.00
38852;BME280;24605;50.092;9.182;2023-02-01T06:48:37;98189.53;;;3.40;100.00
38852;BME280;24605;50.092;9.182;2023-02-01T06:51:04;98183.63;;;3.26;100.00
38852;BME280;24605;50.092;9.182;2023-02-01T06:53:32;98200.47;;;3.43;100.00
38852;BME280;24605;50.092;9.182;2023-02-01T06:56:00;98112.25;;;2.88;100.00
38852;BME280;24605;50.092;9.182;2023-02-01T06:58:28;98190.34;;;3.40;100.00
38852;BME280;24605;50.092;9.182;2023-02-01T07:00:58;98202.72;;;3.48;100.00
38852;BME280;24605;50.092;9.182;2023-02-01T07:03:24;98198.47;;;3.36;100.00
38852;BME280;24605;50.092;9.182;2023-02-01T07:05:55;98168.91;;;3.27;100.00
38852;BME280;24605;50.092;9.182;2023-02-01T07:08:22;98200.59;;;3.53;100.00
38852;BME280;24605;50.092;9.182;2023-02-01T07:10:49;98175.97;;;3.25;100.00
38852;BME280;24605;50.092;9.182;2023-02-01T07:13:16;98181.28;;;3.35;100.00
38852;BME280;24605;50.092;9.182;2023-02-01T07:15:42;98168.34;;;3.35;100.00
38852;BME280;24605;50.092;9.182;2023-02-01T07:18:13;98181.50;;;3.54;100.00
38852;BME280;24605;50.092;9.182;2023-02-01T07:20:41;98138.16;;;3.22;100.00
38852;BME280;24605;50.092;9.182;2023-02-01T07:23:09;98168.09;;;3.38;100.00
38852;BME280;24605;50.092;9.182;2023-02-01T07:25:36;98170.19;;;3.44;100.00
38852;BME280;24605;50.092;9.182;2023-02-01T07:28:03;98142.63;;;3.20;100.00
38852;BME280;24605;50.092;9.182;2023-02-01T07:30:30;98084.84;;;2.86;100.00
38852;BME280;24605;50.092;9.182;2023-02-01T07:32:56;98178.47;;;3.49;100.00
38852;BME280;24605;50.092;9.182;2023-02-01T07:35:27;98126.38;;;3.18;100.00
38852;BME280;24605;50.092;9.182;2023-02-01T07:37:54;98183.53;;;3.39;100.00
38852;BME280;24605;50.092;9.182;2023-02-01T07:40:23;98204.38;;;3.49;100.00
38852;BME280;24605;50.092;9.182;2023-02-01T07:42:53;98194.81;;;3.50;100.00
38852;BME280;24605;50.092;9.182;2023-02-01T07:45:20;98202.00;;;3.46;100.00
38852;BME280;24605;50.092;9.182;2023-02-01T07:47:47;98209.34;;;3.52;100.00
38852;BME280;24605;50.092;9.182;2023-02-01T07:50:14;98215.09;;;3.56;100.00
38852;BME280;24605;50.092;9.182;2023-02-01T07:52:42;98219.44;;;3.55;100.00
38852;BME280;24605;50.092;9.182;2023-02-01T07:55:09;98213.09;;;3.59;100.00
38852;BME280;24605;50.092;9.182;2023-02-01T07:57:36;98218.28;;;3.59;100.00
38852;BME280;24605;50.092;9.182;2023-02-01T08:00:03;98224.78;;;3.65;100.00
38852;BME280;24605;50.092;9.182;2023-02-01T08:02:47;98240.06;;;3.68;100.00
38852;BME280;24605;50.092;9.182;2023-02-01T08:05:14;98215.44;;;3.63;100.00
38852;BME280;24605;50.092;9.182;2023-02-01T08:07:42;98234.66;;;3.71;100.00
38852;BME280;24605;50.092;9.182;2023-02-01T08:10:09;98213.09;;;3.59;100.00
38852;BME280;24605;50.092;9.182;2023-02-01T08:12:36;98231.69;;;3.65;100.00
38852;BME280;24605;50.092;9.182;2023-02-01T08:15:04;98153.94;;;3.19;100.00
38852;BME280;24605;50.092;9.182;2023-02-01T08:17:31;98179.16;;;3.28;100.00
38852;BME280;24605;50.092;9.182;2023-02-01T08:19:57;98249.25;;;3.61;100.00
38852;BME280;24605;50.092;9.182;2023-02-01T08:22:24;98203.75;;;3.23;100.00
38852;BME280;24605;50.092;9.182;2023-02-01T08:24:52;98242.06;;;3.53;100.00
38852;BME280;24605;50.092;9.182;2023-02-01T08:27:26;98236.53;;;3.58;100.00
38852;BME280;24605;50.092;9.182;2023-02-01T08:29:53;98200.81;;;3.27;100.00
38852;BME280;24605;50.092;9.182;2023-02-01T08:32:19;98245.13;;;3.47;100.00
38852;BME280;24605;50.092;9.182;2023-02-01T08:34:46;98274.38;;;3.60;100.00
38852;BME280;24605;50.092;9.182;2023-02-01T08:37:12;98271.19;;;3.68;100.00
38852;BME280;24605;50.092;9.182;2023-02-01T08:39:39;98271.53;;;3.64;100.00
38852;BME280;24605;50.092;9.182;2023-02-01T08:42:10;98274.13;;;3.64;100.00
38852;BME280;24605;50.092;9.182;2023-02-01T08:44:54;98266.44;;;3.51;100.00
38852;BME280;24605;50.092;9.182;2023-02-01T08:47:21;98264.34;;;3.56;100.00
38852;BME280;24605;50.092;9.182;2023-02-01T08:49:48;98256.00;;;3.52;100.00
38852;BME280;24605;50.092;9.182;2023-02-01T08:52:14;98264.34;;;3.56;100.00
38852;BME280;24605;50.092;9.182;2023-02-01T08:54:41;98273.88;;;3.55;100.00
38852;BME280;24605;50.092;9.182;2023-02-01T08:57:07;98263.41;;;3.45;100.00
38852;BME280;24605;50.092;9.182;2023-02-01T08:59:36;98279.56;;;3.60;100.00
38852;BME280;24605;50.092;9.182;2023-02-01T09:02:03;98170.28;;;2.97;100.00
38852;BME280;24605;50.092;9.182;2023-02-01T09:04:29;98285.22;;;3.66;100.00
38852;BME280;24605;50.092;9.182;2023-02-01T09:06:56;98232.88;;;3.38;100.00
38852;BME280;24605;50.092;9.182;2023-02-01T09:09:23;98230.88;;;3.30;100.00
38852;BME280;24605;50.092;9.182;2023-02-01T09:11:50;98273.41;;;3.61;100.00
38852;BME280;24605;50.092;9.182;2023-02-01T09:14:17;98265.63;;;3.61;100.00
38852;BME280;24605;50.092;9.182;2023-02-01T09:16:44;98269.44;;;3.69;100.00
38852;BME280;24605;50.092;9.182;2023-02-01T09:19:11;98265.41;;;3.65;100.00
38852;BME280;24605;50.092;9.182;2023-02-01T09:21:38;98264.94;;;3.59;100.00
38852;BME280;24605;50.092;9.182;2023-02-01T09:24:05;98247.97;;;3.55;100.00
38852;BME280;24605;50.092;9.182;2023-02-01T09:26:32;98225.81;;;3.40;100.00
38852;BME280;24605;50.092;9.182;2023-02-01T09:28:59;98240.66;;;3.49;100.00
38852;BME280;24605;50.092;9.182;2023-02-01T09:31:26;98254.09;;;3.54;100.00
38852;BME280;24605;50.092;9.182;2023-02-01T09:33:54;98280.75;;;3.68;100.00
38852;BME280;24605;50.092;9.182;2023-02-01T09:36:21;98299.34;;;3.73;100.00
38852;BME280;24605;50.092;9.182;2023-02-01T09:38:48;98296.75;;;3.73;100.00
38852;BME280;24605;50.092;9.182;2023-02-01T09:41:26;98297.69;;;3.72;100.00
38852;BME280;24605;50.092;9.182;2023-02-01T09:43:59;98290.84;;;3.71;100.00
38852;BME280;24605;50.092;9.182;2023-02-01T09:46:38;98272.59;;;3.61;100.00
38852;BME280;24605;50.092;9.182;2023-02-01T09:49:12;98302.19;;;3.70;100.00
38852;BME280;24605;50.092;9.182;2023-02-01T09:51:43;98313.63;;;3.79;100.00
38852;BME280;24605;50.092;9.182;2023-02-01T09:54:15;98299.25;;;3.63;100.00
38852;BME280;24605;50.092;9.182;2023-02-01T09:56:46;98305.00;;;3.67;100.00
38852;BME280;24605;50.092;9.182;2023-02-01T09:59:23;98322.72;;;3.84;100.00
38852;BME280;24605;50.092;9.182;2023-02-01T10:01:52;98319.53;;;3.81;100.00
38852;BME280;24605;50.092;9.182;2023-02-01T10:04:21;98330.00;;;3.90;100.00
38852;BME280;24605;50.092;9.182;2023-02-01T10:06:57;98302.06;;;3.71;100.00
38852;BME280;24605;50.092;9.182;2023-02-01T10:09:37;98324.72;;;3.92;100.00
38852;BME280;24605;50.092;9.182;2023-02-01T10:12:41;98310.31;;;3.76;100.00
38852;BME280;24605;50.092;9.182;2023-02-01T10:15:21;98311.28;;;3.87;100.00
38852;BME280;24605;50.092;9.182;2023-02-01T10:18:00;98319.88;;;3.99;100.00
38852;BME280;24605;50.092;9.182;2023-02-01T10:20:39;98314.69;;;3.99;100.00
38852;BME280;24605;50.092;9.182;2023-02-01T10:23:31;98307.25;;;3.94;100.00
38852;BME280;24605;50.092;9.182;2023-02-01T10:26:09;98316.34;;;4.00;100.00
38852;BME280;24605;50.092;9.182;2023-02-01T10:28:39;98279.78;;;3.80;100.00
38852;BME280;24605;50.092;9.182;2023-02-01T10:31:08;98317.63;;;4.05;100.00
38852;BME280;24605;50.092;9.182;2023-02-01T10:33:39;98301.59;;;4.12;100.00
38852;BME280;24605;50.092;9.182;2023-02-01T10:36:14;98297.25;;;4.12;100.00
38852;BME280;24605;50.092;9.182;2023-02-01T10:38:45;98279.31;;;4.09;100.00
38852;BME280;24605;50.092;9.182;2023-02-01T10:41:14;98259.97;;;4.02;100.00
38852;BME280;24605;50.092;9.182;2023-02-01T10:43:42;98219.19;;;3.81;100.00
38852;BME280;24605;50.092;9.182;2023-02-01T10:46:09;98232.16;;;3.92;100.00
38852;BME280;24605;50.092;9.182;2023-02-01T10:48:37;98258.19;;;4.14;100.00
38852;BME280;24605;50.092;9.182;2023-02-01T10:51:06;98259.50;;;4.19;100.00
38852;BME280;24605;50.092;9.182;2023-02-01T10:53:41;98256.91;;;4.19;100.00
38852;BME280;24605;50.092;9.182;2023-02-01T10:56:09;98260.88;;;4.23;100.00
38852;BME280;24605;50.092;9.182;2023-02-01T10:58:43;98274.94;;;4.21;100.00
38852;BME280;24605;50.092;9.182;2023-02-01T11:01:16;98270.00;;;4.18;100.00
38852;BME280;24605;50.092;9.182;2023-02-01T11:03:44;98266.56;;;4.06;100.00
38852;BME280;24605;50.092;9.182;2023-02-01T11:06:24;98243.47;;;4.03;100.00
38852;BME280;24605;50.092;9.182;2023-02-01T11:08:54;98256.19;;;4.06;100.00
38852;BME280;24605;50.092;9.182;2023-02-01T11:11:22;98244.19;;;3.94;100.00
38852;BME280;24605;50.092;9.182;2023-02-01T11:13:58;98252.19;;;4.02;100.00
38852;BME280;24605;50.092;9.182;2023-02-01T11:16:34;98223.56;;;3.81;100.00
38852;BME280;24605;50.092;9.182;2023-02-01T11:19:02;98259.03;;;4.03;100.00
38852;BME280;24605;50.092;9.182;2023-02-01T11:21:28;98199.53;;;3.67;100.00
38852;BME280;24605;50.092;9.182;2023-02-01T11:24:00;98257.41;;;4.02;100.00
38852;BME280;24605;50.092;9.182;2023-02-01T11:26:28;98193.88;;;3.73;100.00
38852;BME280;24605;50.092;9.182;2023-02-01T11:28:58;98257.63;;;4.10;100.00
38852;BME280;24605;50.092;9.182;2023-02-01T11:31:27;98253.84;;;4.03;100.00
38852;BME280;24605;50.092;9.182;2023-02-01T11:33:57;98210.25;;;3.74;100.00
38852;BME280;24605;50.092;9.182;2023-02-01T11:36:26;98226.53;;;3.87;100.00
38852;BME280;24605;50.092;9.182;2023-02-01T11:39:09;98246.78;;;4.05;100.00
38852;BME280;24605;50.092;9.182;2023-02-01T11:41:54;98201.41;;;3.76;100.00
38852;BME280;24605;50.092;9.182;2023-02-01T11:44:29;98218.50;;;3.90;100.00
38852;BME280;24605;50.092;9.182;2023-02-01T11:47:18;98211.66;;;3.89;100.00
38852;BME280;24605;50.092;9.182;2023-02-01T11:49:45;98231.44;;;4.02;100.00
38852;BME280;24605;50.092;9.182;2023-02-01T11:52:18;98234.97;;;4.12;100.00
38852;BME280;24605;50.092;9.182;2023-02-01T11:55:10;98217.53;;;4.03;100.00
38852;BME280;24605;50.092;9.182;2023-02-01T11:57:51;98208.22;;;4.00;100.00
38852;BME280;24605;50.092;9.182;2023-02-01T12:00:34;98163.34;;;3.77;100.00
38852;BME280;24605;50.092;9.182;2023-02-01T12:06:06;98229.06;;;4.21;100.00
38852;BME280;24605;50.092;9.182;2023-02-01T12:08:53;98234.69;;;4.27;100.00
38852;BME280;24605;50.092;9.182;2023-02-01T12:11:38;98211.59;;;4.23;100.00
38852;BME280;24605;50.092;9.182;2023-02-01T12:14:19;98179.78;;;4.10;100.00
38852;BME280;24605;50.092;9.182;2023-02-01T12:16:56;98152.84;;;3.90;100.00
38852;BME280;24605;50.092;9.182;2023-02-01T12:19:36;98203.56;;;4.27;100.00
38852;BME280;24605;50.092;9.182;2023-02-01T12:22:32;98206.88;;;4.29;100.00
38852;BME280;24605;50.092;9.182;2023-02-01T12:25:21;98216.41;;;4.28;100.00
38852;BME280;24605;50.092;9.182;2023-02-01T12:28:10;98207.06;;;4.37;100.00
38852;BME280;24605;50.092;9.182;2023-02-01T12:30:51;98208.72;;;4.38;100.00
38852;BME280;24605;50.092;9.182;2023-02-01T12:33:31;98200.84;;;4.28;100.00
38852;BME280;24605;50.092;9.182;2023-02-01T12:36:11;98217.69;;;4.34;100.00
38852;BME280;24605;50.092;9.182;2023-02-01T12:38:48;98218.28;;;4.37;100.00
38852;BME280;24605;50.092;9.182;2023-02-01T12:41:30;98210.28;;;4.29;100.00
38852;BME280;24605;50.092;9.182;2023-02-01T12:44:01;98201.69;;;4.17;100.00
38852;BME280;24605;50.092;9.182;2023-02-01T12:46:35;98199.56;;;4.22;100.00
38852;BME280;24605;50.092;9.182;2023-02-01T12:49:08;98198.88;;;4.20;100.00
38852;BME280;24605;50.092;9.182;2023-02-01T12:51:37;98185.63;;;4.23;100.00
38852;BME280;24605;50.092;9.182;2023-02-01T12:54:11;98185.19;;;4.18;100.00
38852;BME280;24605;50.092;9.182;2023-02-01T12:56:43;98184.69;;;4.24;100.00
38852;BME280;24605;50.092;9.182;2023-02-01T12:59:19;98194.13;;;4.26;100.00
38852;BME280;24605;50.092;9.182;2023-02-01T13:01:50;98186.84;;;4.19;100.00
38852;BME280;24605;50.092;9.182;2023-02-01T13:04:26;98175.63;;;4.19;100.00
38852;BME280;24605;50.092;9.182;2023-02-01T13:07:00;98180.56;;;4.22;100.00
38852;BME280;24605;50.092;9.182;2023-02-01T13:09:34;98164.66;;;4.15;100.00
38852;BME280;24605;50.092;9.182;2023-02-01T13:12:09;98172.66;;;4.23;100.00
38852;BME280;24605;50.092;9.182;2023-02-01T13:14:43;98163.13;;;4.24;100.00
38852;BME280;24605;50.092;9.182;2023-02-01T13:17:14;98165.59;;;4.26;100.00
38852;BME280;24605;50.092;9.182;2023-02-01T13:19:44;98169.81;;;4.27;100.00
38852;BME280;24605;50.092;9.182;2023-02-01T13:22:15;98165.00;;;4.22;100.00
38852;BME280;24605;50.092;9.182;2023-02-01T13:24:45;98172.28;;;4.28;100.00
38852;BME280;24605;50.092;9.182;2023-02-01T13:27:14;98155.09;;;4.27;100.00
38852;BME280;24605;50.092;9.182;2023-02-01T13:29:48;98167.94;;;4.29;100.00